Time;durP1;ratioP1;P1;durP2;ratioP2;P2;SDS_P1;SDS_P2;PMS_P1;PMS_P2;Temp;Humidity;BMP_temperature;BMP_pressure;BME280_temperature;BME280_humidity;BME280_pressure;Samples;Min_cycle;Max_cycle;Signal;HPM_P1;HPM_P2
2023/12/07 00:01:29;;;;;;;48.95;46.33;;;;;;;5.37;65.52;101860.94;5020293;28;20083;-72
2023/12/07 00:03:54;;;;;;;48.78;46.25;;;;;;;5.37;65.43;101860.94;5011686;28;20030;-72
2023/12/07 00:06:20;;;;;;;49.28;46.88;;;;;;;5.35;65.64;101859.44;5013154;28;20522;-72
2023/12/07 00:08:45;;;;;;;50.40;47.67;;;;;;;5.34;65.54;101861.28;5020672;28;20049;-72
2023/12/07 00:11:11;;;;;;;50.45;46.80;;;;;;;5.34;65.76;101863.13;5025040;28;20034;-73
2023/12/07 00:13:36;;;;;;;49.97;47.47;;;;;;;5.33;65.67;101867.66;5026405;28;20502;-72
2023/12/07 00:16:02;;;;;;;49.35;46.90;;;;;;;5.32;65.51;101865.16;5017474;28;20041;-73
2023/12/07 00:18:27;;;;;;;54.25;51.65;;;;;;;5.30;65.72;101867.19;5018825;28;20051;-72
2023/12/07 00:20:53;;;;;;;49.20;46.83;;;;;;;5.30;65.37;101861.81;5028074;28;20029;-72
2023/12/07 00:23:18;;;;;;;49.50;47.13;;;;;;;5.30;65.80;101861.81;5012914;28;20030;-73
2023/12/07 00:25:45;;;;;;;53.40;50.83;;;;;;;5.29;65.43;101870.88;5029321;28;20032;-73
2023/12/07 00:28:11;;;;;;;51.78;48.75;;;;;;;5.28;65.47;101871.88;5028299;28;20049;-73
2023/12/07 00:30:36;;;;;;;53.55;50.95;;;;;;;5.27;65.71;101868.38;5020553;28;20033;-73
2023/12/07 00:33:02;;;;;;;49.15;46.65;;;;;;;5.27;65.58;101865.69;5028153;28;20038;-72
2023/12/07 00:35:28;;;;;;;55.42;52.72;;;;;;;5.25;65.71;101865.03;5012705;28;20051;-72
2023/12/07 00:37:57;;;;;;;46.78;44.30;;;;;;;5.25;65.47;101864.22;5019679;28;20034;-72
2023/12/07 00:40:23;;;;;;;55.58;52.92;;;;;;;5.24;65.39;101865.22;5029806;28;20038;-72
2023/12/07 00:42:49;;;;;;;57.08;54.00;;;;;;;5.23;65.25;101871.59;5012985;28;20030;-73
2023/12/07 00:45:14;;;;;;;52.75;50.25;;;;;;;5.21;65.36;101866.41;5015174;28;20493;-72
2023/12/07 00:47:40;;;;;;;49.70;47.20;;;;;;;5.20;65.37;101873.63;5012267;28;20045;-72
2023/12/07 00:50:06;;;;;;;47.40;45.10;;;;;;;5.20;65.55;101873.63;5033392;28;20033;-72
2023/12/07 00:52:32;;;;;;;46.40;44.22;;;;;;;5.20;65.53;101875.47;5029193;28;20501;-72
2023/12/07 00:54:57;;;;;;;49.38;47.08;;;;;;;5.18;65.66;101870.28;5012427;28;20034;-72
2023/12/07 00:57:22;;;;;;;52.97;50.30;;;;;;;5.16;65.39;101864.25;5028510;28;20032;-72
2023/12/07 00:59:48;;;;;;;54.22;51.53;;;;;;;5.16;65.68;101855.41;5027280;28;20064;-72
2023/12/07 01:02:13;;;;;;;51.35;48.92;;;;;;;5.17;65.41;101865.94;5022955;28;20076;-71
2023/12/07 01:04:39;;;;;;;51.53;48.97;;;;;;;5.16;65.59;101856.22;5029577;28;20032;-72
2023/12/07 01:07:04;;;;;;;51.25;47.95;;;;;;;5.16;65.36;101863.44;5027900;28;20041;-72
2023/12/07 01:09:30;;;;;;;51.05;48.47;;;;;;;5.14;65.19;101862.78;5029692;28;20038;-72
2023/12/07 01:11:55;;;;;;;52.60;49.90;;;;;;;5.15;65.28;101864.47;5028074;28;20053;-72
2023/12/07 01:14:20;;;;;;;48.67;46.38;;;;;;;5.14;65.38;101865.44;5014889;28;20041;-73
2023/12/07 01:16:46;;;;;;;51.63;49.03;;;;;;;5.13;65.33;101866.47;5013880;28;20030;-73
2023/12/07 01:19:14;;;;;;;49.03;46.72;;;;;;;5.13;65.39;101861.13;5030444;28;20120;-72
2023/12/07 01:21:42;;;;;;;49.35;46.88;;;;;;;5.12;65.35;101865.66;5020341;28;20060;-73
2023/12/07 01:24:08;;;;;;;48.15;45.83;;;;;;;5.11;65.75;101869.31;5013308;28;20044;-72
2023/12/07 01:26:33;;;;;;;50.83;48.38;;;;;;;5.09;65.26;101866.00;5015543;28;20034;-72
2023/12/07 01:28:59;;;;;;;51.22;48.80;;;;;;;5.08;65.36;101866.19;5013048;28;20068;-73
2023/12/07 01:31:24;;;;;;;48.95;46.25;;;;;;;5.08;65.28;101864.31;5021921;28;20115;-73
2023/12/07 01:33:49;;;;;;;54.30;51.58;;;;;;;5.08;65.33;101869.69;5017969;28;20049;-73
2023/12/07 01:36:15;;;;;;;52.88;50.30;;;;;;;5.08;65.63;101874.22;5022067;28;20049;-73
2023/12/07 01:38:40;;;;;;;49.33;46.88;;;;;;;5.07;65.36;101869.88;5013389;28;20100;-73
2023/12/07 01:41:06;;;;;;;53.30;50.85;;;;;;;5.06;65.21;101884.25;5029645;28;20493;-72
2023/12/07 01:43:32;;;;;;;51.70;49.10;;;;;;;5.05;65.35;101888.78;5029060;28;20029;-72
2023/12/07 01:45:59;;;;;;;53.20;50.05;;;;;;;5.04;65.36;101889.81;5023720;28;20061;-72
2023/12/07 01:48:26;;;;;;;54.80;51.40;;;;;;;5.03;65.32;101887.31;5013590;28;20081;-72
2023/12/07 01:50:54;;;;;;;45.92;43.53;;;;;;;5.02;65.68;101883.81;5029532;28;20030;-73
2023/12/07 01:53:23;;;;;;;47.88;45.63;;;;;;;4.99;65.81;101889.53;5032653;28;20087;-73
2023/12/07 01:55:48;;;;;;;;;;;;;;;4.97;65.46;101891.53;5029440;28;20024;-74
2023/12/07 01:58:16;;;;;;;45.47;43.25;;;;;;;4.95;65.65;101889.03;5029918;28;19991;-73
2023/12/07 02:00:42;;;;;;;45.15;42.95;;;;;;;4.94;65.30;101894.56;5029835;28;20037;-74
2023/12/07 02:03:08;;;;;;;58.28;54.92;;;;;;;4.94;65.64;101894.56;5018450;28;20117;-72
2023/12/07 02:05:34;;;;;;;46.20;44.05;;;;;;;4.93;65.54;101893.72;5029327;28;20061;-72
2023/12/07 02:08:00;;;;;;;52.38;49.67;;;;;;;4.92;65.60;101894.75;5029428;28;20446;-72
2023/12/07 02:10:25;;;;;;;53.22;50.72;;;;;;;4.94;65.53;101899.94;5030898;28;20109;-73
2023/12/07 02:12:52;;;;;;;49.78;47.28;;;;;;;4.93;65.86;101895.56;5029857;28;20058;-73
2023/12/07 02:15:19;;;;;;;48.97;46.40;;;;;;;4.90;65.68;101896.75;5028183;28;20029;-73
2023/12/07 02:18:02;;;;;;;52.97;50.55;;;;;;;4.89;65.75;101892.41;5012473;28;20033;-73
2023/12/07 02:20:39;;;;;;;48.90;46.50;;;;;;;4.87;65.58;101891.75;5030410;28;20021;-72
2023/12/07 02:23:07;;;;;;;49.65;47.25;;;;;;;4.86;65.56;101903.47;5031617;28;20030;-72
2023/12/07 02:25:44;;;;;;;49.47;46.97;;;;;;;4.86;65.68;101891.91;5028250;28;20036;-73
2023/12/07 02:28:09;;;;;;;47.78;45.58;;;;;;;4.82;65.97;101882.59;5015430;28;20030;-73
2023/12/07 02:30:35;;;;;;;45.30;43.20;;;;;;;4.82;65.53;101888.78;5033305;28;20044;-72
2023/12/07 02:33:00;;;;;;;52.20;49.40;;;;;;;4.82;65.90;101891.47;5033862;28;20103;-73
2023/12/07 02:35:26;;;;;;;42.85;40.83;;;;;;;4.82;65.60;101896.81;5030128;28;20030;-73
2023/12/07 02:37:53;;;;;;;49.42;46.95;;;;;;;4.82;65.74;101885.28;5024061;28;20431;-73
2023/12/07 02:40:23;;;;;;;48.72;46.13;;;;;;;4.82;65.60;101886.09;5019463;28;20042;-73
2023/12/07 02:42:49;;;;;;;50.15;47.70;;;;;;;4.82;65.72;101890.63;5029643;28;20222;-73
2023/12/07 02:45:15;;;;;;;44.58;42.50;;;;;;;4.81;65.86;101889.78;5049525;28;20049;-74
2023/12/07 02:47:43;;;;;;;49.50;46.92;;;;;;;4.82;65.70;101888.78;5038535;28;20105;-74
2023/12/07 02:50:09;;;;;;;46.13;44.03;;;;;;;4.81;65.88;101887.09;5031485;28;20048;-73
2023/12/07 02:52:35;;;;;;;50.90;48.58;;;;;;;4.80;65.82;101888.13;5033264;28;20478;-73
2023/12/07 02:55:00;;;;;;;49.88;47.28;;;;;;;4.80;65.90;101885.44;5027215;28;20049;-73
2023/12/07 02:57:26;;;;;;;49.95;47.47;;;;;;;4.78;65.58;101882.94;5015432;28;20065;-74
2023/12/07 02:59:51;;;;;;;46.38;44.00;;;;;;;4.77;65.62;101878.59;5016093;28;20037;-74
2023/12/07 03:02:17;;;;;;;47.67;45.42;;;;;;;4.77;65.51;101883.94;5034002;28;20034;-74
2023/12/07 03:04:42;;;;;;;51.50;48.53;;;;;;;4.76;65.67;101879.63;5036625;28;20389;-73
2023/12/07 03:07:08;;;;;;;42.22;40.22;;;;;;;4.77;65.38;101894.66;5014141;28;20076;-73
2023/12/07 03:09:33;;;;;;;47.92;45.50;;;;;;;4.76;65.70;101894.81;5027932;28;20132;-73
2023/12/07 03:11:58;;;;;;;46.58;44.17;;;;;;;4.75;65.74;101893.16;5031840;28;20056;-74
2023/12/07 03:14:24;;;;;;;48.13;45.80;;;;;;;4.76;65.60;101897.50;5016728;28;20025;-73
2023/12/07 03:16:49;;;;;;;48.53;46.17;;;;;;;4.74;65.89;101897.69;5029643;28;20121;-75
2023/12/07 03:19:15;;;;;;;48.35;45.83;;;;;;;4.74;65.63;101896.88;5033760;28;20177;-75
2023/12/07 03:21:41;;;;;;;47.97;45.50;;;;;;;4.73;65.80;101898.69;5018682;28;20112;-74
2023/12/07 03:24:10;;;;;;;47.95;45.55;;;;;;;4.74;65.53;101894.19;5013893;28;20421;-74
2023/12/07 03:26:36;;;;;;;44.28;41.95;;;;;;;4.73;66.07;101887.97;5027543;28;20094;-73
2023/12/07 03:29:02;;;;;;;47.03;44.67;;;;;;;4.73;65.88;101893.31;5027359;28;20037;-73
2023/12/07 03:31:28;;;;;;;48.25;45.97;;;;;;;4.74;65.82;101897.69;5030694;28;20037;-73
2023/12/07 03:33:54;;;;;;;47.17;44.90;;;;;;;4.74;65.76;101900.38;5032619;28;20071;-73
2023/12/07 03:36:19;;;;;;;51.05;48.35;;;;;;;4.73;65.66;101901.34;5031440;28;20137;-73
2023/12/07 03:38:45;;;;;;;46.47;44.17;;;;;;;4.74;65.41;101913.75;5014316;28;20113;-73
2023/12/07 03:41:10;;;;;;;44.65;42.08;;;;;;;4.74;65.84;101913.75;5025092;28;20040;-74
2023/12/07 03:43:36;;;;;;;48.08;45.78;;;;;;;4.73;65.61;101913.91;5014297;28;20028;-75
2023/12/07 03:46:07;;;;;;;47.08;44.67;;;;;;;4.73;65.83;101928.13;5013412;28;20437;-75
2023/12/07 03:48:34;;;;;;;49.78;47.15;;;;;;;4.72;65.52;101926.47;5013562;28;20026;-73
2023/12/07 03:51:00;;;;;;;49.67;46.90;;;;;;;4.71;65.63;101921.28;5014574;28;20052;-74
2023/12/07 03:53:25;;;;;;;48.08;45.88;;;;;;;4.72;65.82;101918.44;5029938;28;20034;-74
2023/12/07 03:55:50;;;;;;;45.00;42.88;;;;;;;4.71;65.68;101922.13;5027816;28;20037;-73
2023/12/07 03:58:16;;;;;;;46.15;43.85;;;;;;;4.71;65.94;101919.47;5017834;28;20030;-74
2023/12/07 04:00:42;;;;;;;47.85;45.60;;;;;;;4.70;65.80;101914.28;5015586;28;20041;-74
2023/12/07 04:03:07;;;;;;;44.90;42.55;;;;;;;4.69;65.73;101921.47;5017520;28;20153;-73
2023/12/07 04:05:33;;;;;;;45.28;43.17;;;;;;;4.68;65.62;101916.28;5012996;28;20152;-73
2023/12/07 04:07:58;;;;;;;47.03;44.72;;;;;;;4.68;65.46;101922.47;5030319;28;20034;-73
2023/12/07 04:10:24;;;;;;;48.63;46.00;;;;;;;4.67;65.75;101928.00;5030941;28;20034;-73
2023/12/07 04:12:49;;;;;;;46.40;44.17;;;;;;;4.66;65.80;101929.84;5030756;28;20520;-73
2023/12/07 04:15:15;;;;;;;49.55;47.13;;;;;;;4.67;66.04;101934.19;5032122;28;20042;-74
2023/12/07 04:17:40;;;;;;;44.50;42.42;;;;;;;4.67;65.61;101931.50;5027790;28;20560;-74
2023/12/07 04:20:07;;;;;;;45.67;43.33;;;;;;;4.67;65.79;101928.00;5023934;28;20478;-73
2023/12/07 04:22:33;;;;;;;44.47;42.38;;;;;;;4.66;65.65;101939.69;5015135;28;20088;-73
2023/12/07 04:24:58;;;;;;;47.13;44.90;;;;;;;4.65;65.82;101927.34;5031974;28;20057;-73
2023/12/07 04:27:23;;;;;;;49.70;47.30;;;;;;;4.65;65.75;101932.69;5031703;28;20382;-75
2023/12/07 04:29:49;;;;;;;41.45;39.45;;;;;;;4.65;65.84;101932.69;5028811;28;20067;-74
2023/12/07 04:32:14;;;;;;;47.28;44.97;;;;;;;4.65;65.66;101938.06;5029856;28;20067;-74
2023/12/07 04:34:39;;;;;;;47.72;45.53;;;;;;;4.64;65.82;101925.69;5032672;28;20034;-74
2023/12/07 04:37:05;;;;;;;49.78;47.33;;;;;;;4.63;65.74;101922.16;5028960;28;20142;-74
2023/12/07 04:39:30;;;;;;;46.38;44.10;;;;;;;4.63;65.87;101930.19;5025848;28;20033;-73
2023/12/07 04:41:56;;;;;;;43.25;41.22;;;;;;;4.63;65.89;101924.00;5029309;28;20041;-74
2023/12/07 04:44:21;;;;;;;45.70;43.58;;;;;;;4.62;65.93;101923.16;5022027;28;20467;-73
2023/12/07 04:46:46;;;;;;;45.30;43.13;;;;;;;4.62;65.91;101917.00;5010678;28;20545;-74
2023/12/07 04:49:12;;;;;;;47.15;44.65;;;;;;;4.63;65.95;101910.63;5016588;28;20084;-73
2023/12/07 04:51:37;;;;;;;44.90;42.67;;;;;;;4.63;65.75;101911.44;5023743;28;20060;-73
2023/12/07 04:54:03;;;;;;;50.30;47.58;;;;;;;4.63;65.70;101908.78;5030633;28;20025;-72
2023/12/07 04:56:28;;;;;;;46.65;44.45;;;;;;;4.63;65.51;101906.09;5023821;28;20482;-73
2023/12/07 04:58:54;;;;;;;45.78;43.55;;;;;;;4.63;65.76;101892.72;5030471;28;20037;-73
2023/12/07 05:01:19;;;;;;;46.53;44.33;;;;;;;4.63;65.75;101891.88;5043346;28;20026;-73
2023/12/07 05:03:45;;;;;;;50.15;47.75;;;;;;;4.62;65.87;101891.06;5016739;28;20474;-73
2023/12/07 05:06:11;;;;;;;47.58;45.22;;;;;;;4.63;65.97;101883.84;5025224;28;20507;-73
2023/12/07 05:08:37;;;;;;;48.08;45.67;;;;;;;4.62;65.63;101885.72;5031020;28;20041;-73
2023/12/07 05:11:02;;;;;;;51.58;48.97;;;;;;;4.61;65.80;101894.75;5021533;28;20087;-72
2023/12/07 05:13:27;;;;;;;45.60;43.30;;;;;;;4.61;65.64;101897.44;5021277;28;20106;-74
2023/12/07 05:15:53;;;;;;;45.22;43.10;;;;;;;4.63;65.85;101897.25;5020559;28;20121;-72
2023/12/07 05:18:18;;;;;;;49.53;47.00;;;;;;;4.62;65.69;101896.41;5013640;28;20443;-73
2023/12/07 05:20:44;;;;;;;47.30;44.97;;;;;;;4.62;65.60;101888.38;5029742;28;20546;-73
2023/12/07 05:23:09;;;;;;;49.13;46.72;;;;;;;4.61;65.95;101894.75;5015685;28;20033;-72
2023/12/07 05:25:35;;;;;;;44.20;41.97;;;;;;;4.60;65.82;101895.75;5020027;28;20427;-73
2023/12/07 05:28:01;;;;;;;47.42;45.22;;;;;;;4.60;65.78;101894.91;5018227;28;20048;-72
2023/12/07 05:30:27;;;;;;;44.65;42.55;;;;;;;4.58;65.97;101900.44;5029729;28;20034;-72
2023/12/07 05:32:53;;;;;;;48.30;45.72;;;;;;;4.60;65.65;101897.59;5025122;28;20109;-72
2023/12/07 05:35:19;;;;;;;49.97;47.30;;;;;;;4.60;65.95;101901.09;5023649;28;20117;-72
2023/12/07 05:37:44;;;;;;;48.35;46.03;;;;;;;4.60;66.05;101902.94;5027206;28;20033;-73
2023/12/07 05:40:12;;;;;;;46.42;44.13;;;;;;;4.59;65.93;101903.97;5028560;28;20439;-73
2023/12/07 05:42:37;;;;;;;47.03;44.67;;;;;;;4.59;65.96;101907.47;5030979;28;20390;-72
2023/12/07 05:45:03;;;;;;;44.80;42.40;;;;;;;4.60;66.00;101889.56;5028276;28;20053;-74
2023/12/07 05:47:29;;;;;;;47.92;45.42;;;;;;;4.60;65.80;101894.91;5017551;28;20501;-76
2023/12/07 05:49:57;;;;;;;47.60;45.40;;;;;;;4.60;65.90;101886.91;5029371;28;20030;-75
2023/12/07 05:52:22;;;;;;;47.85;45.65;;;;;;;4.60;65.70;101885.03;5037279;28;20476;-76
2023/12/07 05:54:48;;;;;;;45.17;43.00;;;;;;;4.60;65.84;101882.38;5041156;28;20056;-73
2023/12/07 05:57:13;;;;;;;47.15;44.78;;;;;;;4.61;65.83;101877.84;5028520;28;20037;-75
2023/12/07 05:59:41;;;;;;;42.58;40.58;;;;;;;4.60;65.83;101887.72;5033841;28;20048;-72
2023/12/07 06:02:07;;;;;;;46.58;44.33;;;;;;;4.60;65.72;101885.03;5024521;28;20407;-74
2023/12/07 06:04:32;;;;;;;48.60;46.13;;;;;;;4.60;65.95;101887.72;5027680;28;20037;-74
2023/12/07 06:06:57;;;;;;;44.78;42.47;;;;;;;4.61;65.92;101880.53;5020130;28;20485;-76
2023/12/07 06:09:23;;;;;;;46.80;44.10;;;;;;;4.62;66.07;101882.19;5016671;28;20118;-73
2023/12/07 06:11:48;;;;;;;46.30;44.15;;;;;;;4.61;65.64;101873.34;5034542;28;20045;-72
2023/12/07 06:14:14;;;;;;;47.25;44.75;;;;;;;4.60;65.81;101871.66;5023260;28;20364;-73
2023/12/07 06:16:39;;;;;;;47.90;45.25;;;;;;;4.61;66.02;101859.97;5017349;28;20509;-72
2023/12/07 06:19:04;;;;;;;48.75;46.38;;;;;;;4.62;65.69;101866.97;5017944;28;20037;-72
2023/12/07 06:21:30;;;;;;;53.75;50.78;;;;;;;4.61;65.94;101862.66;5032090;28;20029;-72
2023/12/07 06:23:56;;;;;;;43.58;41.45;;;;;;;4.61;66.13;101862.66;5046515;28;20033;-72
2023/12/07 06:26:22;;;;;;;48.65;46.15;;;;;;;4.62;65.79;101855.44;5033047;28;20044;-71
2023/12/07 06:28:48;;;;;;;45.50;43.33;;;;;;;4.62;65.81;101850.09;5014924;28;20030;-72
2023/12/07 06:31:15;;;;;;;49.50;46.78;;;;;;;4.62;66.04;101852.75;5024378;28;20489;-73
2023/12/07 06:33:40;;;;;;;45.22;42.88;;;;;;;4.62;65.80;101844.75;5018289;28;20025;-73
2023/12/07 06:36:06;;;;;;;46.42;44.08;;;;;;;4.61;65.95;101843.91;5017121;28;20060;-72
2023/12/07 06:38:32;;;;;;;44.78;42.67;;;;;;;4.60;65.84;101844.91;5031977;28;20504;-71
2023/12/07 06:40:57;;;;;;;48.45;45.92;;;;;;;4.60;65.97;101844.06;5038361;28;20517;-73
2023/12/07 06:43:23;;;;;;;47.83;45.00;;;;;;;4.61;66.22;101845.72;5025435;28;20041;-73
2023/12/07 06:45:48;;;;;;;50.28;47.28;;;;;;;4.60;65.71;101838.72;5043182;28;20441;-76
2023/12/07 06:48:14;;;;;;;47.88;45.47;;;;;;;4.60;65.91;101833.38;5034355;28;20040;-74
2023/12/07 06:50:39;;;;;;;49.63;47.17;;;;;;;4.59;66.08;101842.41;5020900;28;20091;-74
2023/12/07 06:53:04;;;;;;;48.97;46.28;;;;;;;4.60;66.04;101847.56;5027895;28;20029;-75
2023/12/07 06:55:30;;;;;;;45.28;43.10;;;;;;;4.61;65.94;101849.25;5019632;28;20029;-73
2023/12/07 06:57:55;;;;;;;47.97;45.40;;;;;;;4.62;65.97;101847.41;5031809;28;20108;-74
2023/12/07 07:00:21;;;;;;;51.28;48.45;;;;;;;4.62;66.07;101863.47;5014347;28;20061;-73
2023/12/07 07:02:47;;;;;;;45.50;43.00;;;;;;;4.62;65.90;101855.44;5028846;28;20040;-73
2023/12/07 07:05:12;;;;;;;44.35;42.08;;;;;;;4.61;66.09;101872.50;5031974;28;20046;-72
2023/12/07 07:07:38;;;;;;;50.78;47.65;;;;;;;4.60;65.79;101865.47;5031916;28;20121;-73
2023/12/07 07:10:04;;;;;;;49.58;47.28;;;;;;;4.60;65.98;101878.88;5033313;28;20116;-73
2023/12/07 07:12:30;;;;;;;51.80;48.92;;;;;;;4.60;66.02;101860.13;5032210;28;20053;-73
2023/12/07 07:14:55;;;;;;;48.17;45.28;;;;;;;4.61;65.79;101869.81;5025880;28;20086;-73
2023/12/07 07:17:21;;;;;;;55.15;51.58;;;;;;;4.61;65.89;101869.81;5012377;28;20044;-72
2023/12/07 07:19:46;;;;;;;51.58;48.65;;;;;;;4.61;65.87;101873.34;5025441;28;20433;-72
2023/12/07 07:22:12;;;;;;;46.22;43.40;;;;;;;4.62;65.85;101869.66;5051026;28;20037;-73
2023/12/07 07:24:37;;;;;;;50.00;47.10;;;;;;;4.60;65.92;101868.97;5032722;28;20401;-73
2023/12/07 07:27:03;;;;;;;47.47;45.17;;;;;;;4.61;65.99;101859.09;5047179;28;20033;-73
2023/12/07 07:29:28;;;;;;;50.78;47.83;;;;;;;4.61;65.97;101856.44;5028107;28;20064;-73
2023/12/07 07:31:55;;;;;;;46.30;44.00;;;;;;;4.60;65.94;101850.25;5026083;28;20046;-73
2023/12/07 07:34:21;;;;;;;44.35;42.13;;;;;;;4.60;65.87;101863.63;5029376;28;20112;-74
2023/12/07 07:36:46;;;;;;;51.17;48.53;;;;;;;4.60;65.79;101865.47;5024171;28;20117;-73
2023/12/07 07:39:13;;;;;;;51.60;49.17;;;;;;;4.60;65.96;101866.31;5026654;28;20030;-75
2023/12/07 07:41:39;;;;;;;46.83;43.97;;;;;;;4.60;65.67;101860.13;5043140;28;20037;-75
2023/12/07 07:44:05;;;;;;;48.60;46.17;;;;;;;4.60;66.13;101873.50;5021575;28;20029;-73
2023/12/07 07:46:30;;;;;;;52.65;49.85;;;;;;;4.60;66.02;101865.47;5026661;28;20022;-73
2023/12/07 07:48:55;;;;;;;45.28;42.83;;;;;;;4.60;66.13;101863.63;5046114;28;20029;-72
2023/12/07 07:51:21;;;;;;;48.25;45.85;;;;;;;4.61;66.14;101867.13;5048004;28;20030;-73
2023/12/07 07:53:46;;;;;;;46.15;43.90;;;;;;;4.60;65.99;101860.13;5027045;28;20524;-73
2023/12/07 07:56:12;;;;;;;48.60;45.63;;;;;;;4.61;66.10;101856.44;5015440;28;20038;-73
2023/12/07 07:58:37;;;;;;;52.33;49.50;;;;;;;4.61;65.87;101859.97;5027237;28;20389;-74
2023/12/07 08:01:03;;;;;;;50.90;47.63;;;;;;;4.60;66.10;101860.97;5044553;28;20084;-72
2023/12/07 08:03:28;;;;;;;53.10;49.33;;;;;;;4.60;65.71;101858.28;5014087;28;20038;-74
2023/12/07 08:05:54;;;;;;;48.97;46.55;;;;;;;4.62;65.99;101858.13;5033829;28;20124;-75
2023/12/07 08:08:19;;;;;;;46.05;43.83;;;;;;;4.61;66.05;101870.69;5027025;28;20557;-78
2023/12/07 08:10:45;;;;;;;47.92;45.40;;;;;;;4.63;65.97;101870.47;5023796;28;20513;-74
2023/12/07 08:13:10;;;;;;;43.90;41.15;;;;;;;4.63;65.95;101875.84;4974645;28;1117122;-74
2023/12/07 08:15:35;;;;;;;48.72;46.03;;;;;;;4.62;65.74;101879.53;5030567;28;20505;-74
2023/12/07 08:18:02;;;;;;;47.22;44.72;;;;;;;4.61;65.87;101870.69;5005479;28;20032;-73
2023/12/07 08:20:27;;;;;;;46.50;44.00;;;;;;;4.62;65.87;101875.00;5031688;28;20034;-73
2023/12/07 08:22:53;;;;;;;49.50;46.75;;;;;;;4.62;65.73;101864.28;5027512;28;20038;-74
2023/12/07 08:25:19;;;;;;;46.92;44.42;;;;;;;4.62;66.21;101858.94;5013280;28;20132;-75
2023/12/07 08:27:45;;;;;;;50.00;47.22;;;;;;;4.62;65.77;101866.97;5020938;28;20042;-73
2023/12/07 08:30:12;;;;;;;46.40;44.10;;;;;;;4.63;66.10;101881.19;5015690;28;20038;-73
2023/12/07 08:32:38;;;;;;;47.60;44.97;;;;;;;4.64;66.19;101880.19;5026557;28;20116;-73
2023/12/07 08:35:05;;;;;;;51.22;48.67;;;;;;;4.64;66.04;101881.03;5032894;28;20064;-74
2023/12/07 08:37:33;;;;;;;49.90;47.22;;;;;;;4.65;66.22;101873.81;5037598;28;20033;-72
2023/12/07 08:39:59;;;;;;;49.13;46.28;;;;;;;4.66;65.81;101884.38;5022325;28;20041;-72
2023/12/07 08:42:26;;;;;;;55.85;52.38;;;;;;;4.64;66.12;101872.16;5027298;28;20033;-73
2023/12/07 08:44:52;;;;;;;51.28;48.67;;;;;;;4.65;65.81;101871.13;5020626;28;20032;-73
2023/12/07 08:47:17;;;;;;;50.92;48.10;;;;;;;4.65;66.07;101873.81;5016047;28;20117;-73
2023/12/07 08:49:42;;;;;;;47.78;44.80;;;;;;;4.65;66.17;101865.78;5032014;28;20112;-72
2023/12/07 08:52:08;;;;;;;56.35;52.17;;;;;;;4.65;66.46;101868.47;5016060;28;20049;-72
2023/12/07 08:54:33;;;;;;;53.80;50.45;;;;;;;4.65;65.93;101855.91;5011321;28;20044;-73
2023/12/07 08:56:59;;;;;;;47.60;45.10;;;;;;;4.64;65.77;101856.94;5029504;28;20040;-73
2023/12/07 08:59:24;;;;;;;47.70;45.05;;;;;;;4.66;66.00;101851.38;5034154;28;20445;-73
2023/12/07 09:01:49;;;;;;;49.05;46.50;;;;;;;4.65;65.94;101845.22;5017430;28;20033;-73
2023/12/07 09:04:15;;;;;;;49.75;46.72;;;;;;;4.66;66.11;101854.91;5028334;28;20120;-75
2023/12/07 09:06:40;;;;;;;47.08;44.45;;;;;;;4.67;65.88;101853.91;5021762;28;20065;-74
2023/12/07 09:09:05;;;;;;;44.72;42.47;;;;;;;4.68;65.77;101868.94;5027601;28;20405;-73
2023/12/07 09:11:31;;;;;;;51.75;48.63;;;;;;;4.68;66.25;101860.91;5024871;28;20025;-73
2023/12/07 09:13:57;;;;;;;47.33;45.13;;;;;;;4.68;66.17;101860.06;5042144;28;20045;-73
2023/12/07 09:16:22;;;;;;;48.38;45.60;;;;;;;4.68;66.08;101860.91;5027483;28;20072;-75
2023/12/07 09:18:48;;;;;;;52.58;49.38;;;;;;;4.71;66.28;101867.75;5015759;28;20037;-73
2023/12/07 09:21:13;;;;;;;55.58;52.47;;;;;;;4.70;65.85;101858.88;5028296;28;20198;-73
2023/12/07 09:23:39;;;;;;;54.38;51.22;;;;;;;4.72;65.81;101853.38;5028408;28;20053;-73
2023/12/07 09:26:04;;;;;;;49.80;47.38;;;;;;;4.73;65.96;101850.50;5022759;28;20038;-73
2023/12/07 09:28:33;;;;;;;50.35;47.40;;;;;;;4.74;65.95;101841.47;5020749;28;20101;-73
2023/12/07 09:30:58;;;;;;;52.42;49.40;;;;;;;4.74;66.19;101844.16;5022803;28;20032;-74
2023/12/07 09:33:23;;;;;;;48.00;45.47;;;;;;;4.75;65.91;101840.47;5029778;28;20045;-72
2023/12/07 09:35:49;;;;;;;55.33;52.10;;;;;;;4.76;65.83;101833.25;5016906;28;20046;-73
2023/12/07 09:38:14;;;;;;;50.92;48.08;;;;;;;4.77;65.79;101832.25;5013139;28;20034;-73
2023/12/07 09:40:40;;;;;;;53.28;49.83;;;;;;;4.77;65.99;101827.72;5010460;28;20047;-74
2023/12/07 09:43:05;;;;;;;55.20;52.50;;;;;;;4.78;65.96;101817.84;5015530;28;20116;-74
2023/12/07 09:45:31;;;;;;;56.42;53.20;;;;;;;4.78;65.53;101810.66;5027662;28;20462;-74
2023/12/07 09:47:57;;;;;;;53.42;50.25;;;;;;;4.80;66.04;101806.97;5028061;28;20029;-72
2023/12/07 09:50:27;;;;;;;45.85;43.45;;;;;;;4.80;66.09;101807.81;5028203;28;20052;-73
2023/12/07 09:52:58;;;;;;;48.75;46.35;;;;;;;4.81;65.83;101798.75;5025914;28;20027;-73
2023/12/07 09:55:24;;;;;;;54.33;51.60;;;;;;;4.79;65.77;101795.44;5011649;28;20061;-74
2023/12/07 09:57:50;;;;;;;50.35;47.35;;;;;;;4.78;65.97;101789.25;5009845;28;20480;-72
2023/12/07 10:00:17;;;;;;;50.47;47.10;;;;;;;4.79;66.26;101790.09;5013398;28;20126;-72
2023/12/07 10:02:45;;;;;;;54.83;51.90;;;;;;;4.80;65.98;101790.91;5028511;28;20037;-72
2023/12/07 10:05:16;;;;;;;52.13;49.45;;;;;;;4.81;66.20;101781.88;5022513;28;20048;-73
2023/12/07 10:07:48;;;;;;;53.00;50.15;;;;;;;4.81;66.09;101776.50;5009614;28;20405;-74
2023/12/07 10:10:14;;;;;;;55.92;52.67;;;;;;;4.83;66.20;101785.19;5037763;28;20477;-74
2023/12/07 10:12:50;;;;;;;48.97;46.22;;;;;;;4.83;65.91;101783.34;5029268;28;20049;-73
2023/12/07 10:15:17;;;;;;;53.17;50.00;;;;;;;4.84;65.97;101782.34;5041174;28;20037;-72
2023/12/07 10:17:54;;;;;;;56.88;53.20;;;;;;;4.86;65.90;101771.44;5028889;28;20061;-73
2023/12/07 10:20:28;;;;;;;50.90;47.35;;;;;;;4.86;66.02;101766.09;5026772;28;20030;-77
2023/12/07 10:23:04;;;;;;;50.10;47.40;;;;;;;4.88;65.93;101767.59;5023815;28;20060;-76
2023/12/07 10:25:36;;;;;;;53.08;49.92;;;;;;;4.89;66.07;101763.06;5019104;28;20041;-75
2023/12/07 10:28:06;;;;;;;54.38;50.78;;;;;;;4.90;66.00;101762.06;5016986;28;20045;-73
2023/12/07 10:30:31;;;;;;;52.00;49.50;;;;;;;4.91;66.08;101761.03;5014967;28;20087;-74
2023/12/07 10:32:57;;;;;;;52.47;49.42;;;;;;;4.92;65.70;101754.69;5014058;28;20033;-74
2023/12/07 10:35:23;;;;;;;53.33;50.63;;;;;;;4.92;66.04;101750.16;5021455;28;20053;-73
2023/12/07 10:37:48;;;;;;;52.00;48.38;;;;;;;4.94;65.82;101740.09;5020250;28;20056;-73
2023/12/07 10:40:14;;;;;;;49.72;47.13;;;;;;;4.93;66.16;101737.59;5031611;28;20040;-75
2023/12/07 10:42:42;;;;;;;52.15;48.15;;;;;;;4.93;65.86;101732.25;5027816;28;20121;-73
2023/12/07 10:45:09;;;;;;;51.22;48.35;;;;;;;4.93;65.97;101729.56;5023214;28;20053;-72
2023/12/07 10:47:37;;;;;;;48.15;45.75;;;;;;;4.93;66.10;101726.88;5042581;28;20040;-72
2023/12/07 10:50:10;;;;;;;48.38;46.05;;;;;;;4.93;65.71;101724.22;5023881;28;20637;-76
2023/12/07 10:52:51;;;;;;;49.45;46.67;;;;;;;4.94;65.94;101710.66;5007855;28;20099;-72
2023/12/07 10:55:20;;;;;;;53.53;50.67;;;;;;;4.95;65.80;101711.47;5017671;28;20164;-74
2023/12/07 10:57:47;;;;;;;56.47;52.95;;;;;;;4.96;65.79;101707.78;5015900;28;20363;-74
2023/12/07 11:00:13;;;;;;;52.65;50.15;;;;;;;4.95;65.74;101703.44;5026559;28;20084;-74
2023/12/07 11:02:41;;;;;;;52.67;49.78;;;;;;;4.95;66.13;101700.78;5031387;28;20426;-74
2023/12/07 11:05:06;;;;;;;58.07;54.27;;;;;;;4.96;65.93;101689.88;5030506;28;20040;-74
2023/12/07 11:07:48;;;;;;;53.30;50.20;;;;;;;4.96;65.80;101687.22;5039691;28;20284;-75
2023/12/07 11:10:45;;;;;;;51.15;48.28;;;;;;;4.98;66.00;101678.97;5028849;28;20378;-73
2023/12/07 11:13:28;;;;;;;49.72;47.08;;;;;;;4.98;65.83;101670.94;5030074;28;20512;-73